sensor_id;sensor_type;location;lat;lon;timestamp;P1;durP1;ratioP1;P2;durP2;ratioP2
8580;SDS011;4328;48.622;9.230;2022-09-06T00:02:05;3.73;;;2.63;;
8580;SDS011;4328;48.622;9.230;2022-09-06T00:04:32;3.57;;;3.00;;
8580;SDS011;4328;48.622;9.230;2022-09-06T00:06:58;3.00;;;2.80;;
8580;SDS011;4328;48.622;9.230;2022-09-06T00:09:25;4.90;;;2.80;;
8580;SDS011;4328;48.622;9.230;2022-09-06T00:11:52;3.10;;;2.90;;
8580;SDS011;4328;48.622;9.230;2022-09-06T00:14:18;4.53;;;2.77;;
8580;SDS011;4328;48.622;9.230;2022-09-06T00:16:45;2.93;;;2.70;;
8580;SDS011;4328;48.622;9.230;2022-09-06T00:19:13;3.77;;;2.90;;
8580;SDS011;4328;48.622;9.230;2022-09-06T00:21:39;3.53;;;3.23;;
8580;SDS011;4328;48.622;9.230;2022-09-06T00:24:06;3.83;;;2.83;;
8580;SDS011;4328;48.622;9.230;2022-09-06T00:26:34;5.40;;;3.30;;
8580;SDS011;4328;48.622;9.230;2022-09-06T00:29:01;3.03;;;2.73;;
8580;SDS011;4328;48.622;9.230;2022-09-06T00:31:27;3.30;;;2.70;;
8580;SDS011;4328;48.622;9.230;2022-09-06T00:33:54;4.00;;;3.00;;
8580;SDS011;4328;48.622;9.230;2022-09-06T00:36:22;2.83;;;2.63;;
8580;SDS011;4328;48.622;9.230;2022-09-06T00:38:49;2.90;;;2.60;;
8580;SDS011;4328;48.622;9.230;2022-09-06T00:41:18;3.20;;;2.90;;
8580;SDS011;4328;48.622;9.230;2022-09-06T00:43:45;3.37;;;3.13;;
8580;SDS011;4328;48.622;9.230;2022-09-06T00:46:13;3.27;;;2.97;;
8580;SDS011;4328;48.622;9.230;2022-09-06T00:48:43;4.03;;;2.90;;
8580;SDS011;4328;48.622;9.230;2022-09-06T00:51:12;2.97;;;2.77;;
8580;SDS011;4328;48.622;9.230;2022-09-06T00:53:43;3.00;;;2.80;;
8580;SDS011;4328;48.622;9.230;2022-09-06T00:56:10;6.63;;;2.97;;
8580;SDS011;4328;48.622;9.230;2022-09-06T00:58:37;2.93;;;2.73;;
8580;SDS011;4328;48.622;9.230;2022-09-06T01:01:04;3.17;;;2.50;;
8580;SDS011;4328;48.622;9.230;2022-09-06T01:03:32;2.93;;;2.70;;
8580;SDS011;4328;48.622;9.230;2022-09-06T01:06:03;2.97;;;2.70;;
8580;SDS011;4328;48.622;9.230;2022-09-06T01:08:46;5.30;;;2.80;;
8580;SDS011;4328;48.622;9.230;2022-09-06T01:11:34;3.43;;;3.00;;
8580;SDS011;4328;48.622;9.230;2022-09-06T01:14:14;3.87;;;3.00;;
8580;SDS011;4328;48.622;9.230;2022-09-06T01:16:50;3.03;;;2.83;;
8580;SDS011;4328;48.622;9.230;2022-09-06T01:19:36;3.17;;;2.83;;
8580;SDS011;4328;48.622;9.230;2022-09-06T01:22:25;3.30;;;3.00;;
8580;SDS011;4328;48.622;9.230;2022-09-06T01:25:18;4.20;;;3.03;;
8580;SDS011;4328;48.622;9.230;2022-09-06T01:30:51;3.27;;;3.00;;
8580;SDS011;4328;48.622;9.230;2022-09-06T01:33:25;3.57;;;3.20;;
8580;SDS011;4328;48.622;9.230;2022-09-06T01:35:58;2.93;;;2.70;;
8580;SDS011;4328;48.622;9.230;2022-09-06T01:38:27;3.20;;;2.90;;
8580;SDS011;4328;48.622;9.230;2022-09-06T01:40:55;4.00;;;3.13;;
8580;SDS011;4328;48.622;9.230;2022-09-06T01:43:23;4.23;;;2.70;;
8580;SDS011;4328;48.622;9.230;2022-09-06T01:45:56;3.30;;;3.00;;
8580;SDS011;4328;48.622;9.230;2022-09-06T01:48:31;4.83;;;2.97;;
8580;SDS011;4328;48.622;9.230;2022-09-06T01:51:11;3.57;;;2.87;;
8580;SDS011;4328;48.622;9.230;2022-09-06T01:53:52;7.53;;;3.50;;
8580;SDS011;4328;48.622;9.230;2022-09-06T01:56:29;3.30;;;3.10;;
8580;SDS011;4328;48.622;9.230;2022-09-06T01:59:07;4.57;;;3.20;;
8580;SDS011;4328;48.622;9.230;2022-09-06T02:01:49;4.60;;;2.90;;
8580;SDS011;4328;48.622;9.230;2022-09-06T02:04:24;4.43;;;3.20;;
8580;SDS011;4328;48.622;9.230;2022-09-06T02:06:58;4.20;;;3.03;;
8580;SDS011;4328;48.622;9.230;2022-09-06T02:09:29;4.50;;;3.10;;
8580;SDS011;4328;48.622;9.230;2022-09-06T02:12:01;3.40;;;3.10;;
8580;SDS011;4328;48.622;9.230;2022-09-06T02:14:32;4.93;;;3.00;;
8580;SDS011;4328;48.622;9.230;2022-09-06T02:17:02;4.10;;;3.07;;
8580;SDS011;4328;48.622;9.230;2022-09-06T02:19:31;3.30;;;3.10;;
8580;SDS011;4328;48.622;9.230;2022-09-06T02:22:02;3.60;;;3.30;;
8580;SDS011;4328;48.622;9.230;2022-09-06T02:24:33;3.30;;;3.00;;
8580;SDS011;4328;48.622;9.230;2022-09-06T02:27:03;5.33;;;2.83;;
8580;SDS011;4328;48.622;9.230;2022-09-06T02:29:32;3.33;;;3.07;;
8580;SDS011;4328;48.622;9.230;2022-09-06T02:32:00;3.97;;;2.63;;
8580;SDS011;4328;48.622;9.230;2022-09-06T02:34:31;2.90;;;2.70;;
8580;SDS011;4328;48.622;9.230;2022-09-06T02:36:58;3.73;;;2.80;;
8580;SDS011;4328;48.622;9.230;2022-09-06T02:39:25;3.13;;;2.93;;
8580;SDS011;4328;48.622;9.230;2022-09-06T02:41:52;4.57;;;3.20;;
8580;SDS011;4328;48.622;9.230;2022-09-06T02:44:19;3.83;;;2.93;;
8580;SDS011;4328;48.622;9.230;2022-09-06T02:46:48;3.93;;;3.20;;
8580;SDS011;4328;48.622;9.230;2022-09-06T02:49:14;3.50;;;3.20;;
8580;SDS011;4328;48.622;9.230;2022-09-06T02:51:41;3.17;;;2.80;;
8580;SDS011;4328;48.622;9.230;2022-09-06T02:54:07;2.97;;;2.77;;
8580;SDS011;4328;48.622;9.230;2022-09-06T02:56:34;4.13;;;2.97;;
8580;SDS011;4328;48.622;9.230;2022-09-06T02:59:01;3.60;;;3.30;;
8580;SDS011;4328;48.622;9.230;2022-09-06T03:01:29;3.43;;;3.10;;
8580;SDS011;4328;48.622;9.230;2022-09-06T03:03:57;3.23;;;3.00;;
8580;SDS011;4328;48.622;9.230;2022-09-06T03:06:24;3.97;;;2.77;;
8580;SDS011;4328;48.622;9.230;2022-09-06T03:08:52;3.50;;;3.20;;
8580;SDS011;4328;48.622;9.230;2022-09-06T03:11:18;3.70;;;3.40;;
8580;SDS011;4328;48.622;9.230;2022-09-06T03:13:45;3.70;;;2.93;;
8580;SDS011;4328;48.622;9.230;2022-09-06T03:16:12;5.97;;;3.00;;
8580;SDS011;4328;48.622;9.230;2022-09-06T03:18:38;4.53;;;3.27;;
8580;SDS011;4328;48.622;9.230;2022-09-06T03:21:07;3.47;;;3.27;;
8580;SDS011;4328;48.622;9.230;2022-09-06T03:23:34;3.93;;;3.20;;
8580;SDS011;4328;48.622;9.230;2022-09-06T03:26:03;4.10;;;3.13;;
8580;SDS011;4328;48.622;9.230;2022-09-06T03:28:30;4.73;;;3.00;;
8580;SDS011;4328;48.622;9.230;2022-09-06T03:30:58;3.93;;;3.63;;
8580;SDS011;4328;48.622;9.230;2022-09-06T03:33:24;4.57;;;3.33;;
8580;SDS011;4328;48.622;9.230;2022-09-06T03:35:52;3.50;;;3.20;;
8580;SDS011;4328;48.622;9.230;2022-09-06T03:38:21;4.30;;;3.43;;
8580;SDS011;4328;48.622;9.230;2022-09-06T03:40:49;3.87;;;3.07;;
8580;SDS011;4328;48.622;9.230;2022-09-06T03:43:17;6.93;;;3.87;;
8580;SDS011;4328;48.622;9.230;2022-09-06T03:45:44;4.67;;;3.37;;
8580;SDS011;4328;48.622;9.230;2022-09-06T03:48:12;4.17;;;3.40;;
8580;SDS011;4328;48.622;9.230;2022-09-06T03:50:41;4.03;;;3.17;;
8580;SDS011;4328;48.622;9.230;2022-09-06T03:53:09;4.80;;;3.10;;
8580;SDS011;4328;48.622;9.230;2022-09-06T03:55:37;4.43;;;3.30;;
8580;SDS011;4328;48.622;9.230;2022-09-06T03:58:04;3.43;;;3.17;;
8580;SDS011;4328;48.622;9.230;2022-09-06T04:00:31;3.73;;;3.53;;
8580;SDS011;4328;48.622;9.230;2022-09-06T04:02:58;4.93;;;3.40;;
8580;SDS011;4328;48.622;9.230;2022-09-06T04:05:25;3.70;;;3.40;;
8580;SDS011;4328;48.622;9.230;2022-09-06T04:07:51;3.77;;;3.57;;
8580;SDS011;4328;48.622;9.230;2022-09-06T04:10:18;4.83;;;3.30;;
8580;SDS011;4328;48.622;9.230;2022-09-06T04:12:46;3.97;;;3.57;;
8580;SDS011;4328;48.622;9.230;2022-09-06T04:15:13;8.67;;;3.80;;
8580;SDS011;4328;48.622;9.230;2022-09-06T04:17:42;4.57;;;3.60;;
8580;SDS011;4328;48.622;9.230;2022-09-06T04:20:09;3.17;;;2.97;;
8580;SDS011;4328;48.622;9.230;2022-09-06T04:22:36;4.03;;;3.50;;
8580;SDS011;4328;48.622;9.230;2022-09-06T04:25:03;3.63;;;3.33;;
8580;SDS011;4328;48.622;9.230;2022-09-06T04:27:30;4.00;;;3.70;;
8580;SDS011;4328;48.622;9.230;2022-09-06T04:29:58;3.90;;;3.60;;
8580;SDS011;4328;48.622;9.230;2022-09-06T04:32:25;3.43;;;3.23;;
8580;SDS011;4328;48.622;9.230;2022-09-06T04:34:52;4.07;;;3.67;;
8580;SDS011;4328;48.622;9.230;2022-09-06T04:37:18;6.27;;;3.90;;
8580;SDS011;4328;48.622;9.230;2022-09-06T04:39:45;3.93;;;3.63;;
8580;SDS011;4328;48.622;9.230;2022-09-06T04:42:12;3.70;;;3.40;;
8580;SDS011;4328;48.622;9.230;2022-09-06T04:44:39;3.93;;;3.53;;
8580;SDS011;4328;48.622;9.230;2022-09-06T04:47:09;3.80;;;3.40;;
8580;SDS011;4328;48.622;9.230;2022-09-06T04:49:39;4.17;;;3.83;;
8580;SDS011;4328;48.622;9.230;2022-09-06T04:52:06;4.10;;;3.70;;
8580;SDS011;4328;48.622;9.230;2022-09-06T04:54:32;3.93;;;3.63;;
8580;SDS011;4328;48.622;9.230;2022-09-06T04:57:00;5.80;;;3.87;;
8580;SDS011;4328;48.622;9.230;2022-09-06T04:59:27;4.30;;;3.60;;
8580;SDS011;4328;48.622;9.230;2022-09-06T05:01:53;7.23;;;4.00;;
8580;SDS011;4328;48.622;9.230;2022-09-06T05:04:21;6.27;;;3.87;;
8580;SDS011;4328;48.622;9.230;2022-09-06T05:06:48;3.73;;;3.33;;
8580;SDS011;4328;48.622;9.230;2022-09-06T05:09:15;6.00;;;3.57;;
8580;SDS011;4328;48.622;9.230;2022-09-06T05:11:41;5.37;;;3.63;;
8580;SDS011;4328;48.622;9.230;2022-09-06T05:14:08;3.87;;;3.40;;
8580;SDS011;4328;48.622;9.230;2022-09-06T05:16:35;4.43;;;3.60;;
8580;SDS011;4328;48.622;9.230;2022-09-06T05:19:01;4.13;;;3.70;;
8580;SDS011;4328;48.622;9.230;2022-09-06T05:21:29;3.90;;;3.40;;
8580;SDS011;4328;48.622;9.230;2022-09-06T05:23:56;3.80;;;3.50;;
8580;SDS011;4328;48.622;9.230;2022-09-06T05:26:22;4.10;;;3.70;;
8580;SDS011;4328;48.622;9.230;2022-09-06T05:28:49;4.67;;;3.67;;
8580;SDS011;4328;48.622;9.230;2022-09-06T05:31:22;3.53;;;3.33;;
8580;SDS011;4328;48.622;9.230;2022-09-06T05:33:51;4.53;;;4.13;;
8580;SDS011;4328;48.622;9.230;2022-09-06T05:36:19;8.13;;;4.23;;
8580;SDS011;4328;48.622;9.230;2022-09-06T05:38:49;3.93;;;3.63;;
8580;SDS011;4328;48.622;9.230;2022-09-06T05:41:16;5.33;;;3.90;;
8580;SDS011;4328;48.622;9.230;2022-09-06T05:43:43;3.33;;;3.13;;
8580;SDS011;4328;48.622;9.230;2022-09-06T05:46:10;4.37;;;3.57;;
8580;SDS011;4328;48.622;9.230;2022-09-06T05:48:37;3.80;;;3.40;;
8580;SDS011;4328;48.622;9.230;2022-09-06T05:51:05;4.80;;;3.97;;
8580;SDS011;4328;48.622;9.230;2022-09-06T05:53:33;4.30;;;3.80;;
8580;SDS011;4328;48.622;9.230;2022-09-06T05:56:02;6.33;;;3.77;;
8580;SDS011;4328;48.622;9.230;2022-09-06T05:58:30;4.03;;;3.63;;
8580;SDS011;4328;48.622;9.230;2022-09-06T06:01:03;5.50;;;3.63;;
8580;SDS011;4328;48.622;9.230;2022-09-06T06:03:31;6.43;;;3.93;;
8580;SDS011;4328;48.622;9.230;2022-09-06T06:05:57;4.30;;;3.90;;
8580;SDS011;4328;48.622;9.230;2022-09-06T06:08:24;5.77;;;3.53;;
8580;SDS011;4328;48.622;9.230;2022-09-06T06:10:51;3.90;;;3.50;;
8580;SDS011;4328;48.622;9.230;2022-09-06T06:13:19;4.70;;;3.40;;
8580;SDS011;4328;48.622;9.230;2022-09-06T06:15:45;4.00;;;3.60;;
8580;SDS011;4328;48.622;9.230;2022-09-06T06:18:12;3.70;;;3.40;;
8580;SDS011;4328;48.622;9.230;2022-09-06T06:20:38;4.83;;;4.37;;
8580;SDS011;4328;48.622;9.230;2022-09-06T06:23:05;5.23;;;3.70;;
8580;SDS011;4328;48.622;9.230;2022-09-06T06:25:32;4.40;;;4.10;;
8580;SDS011;4328;48.622;9.230;2022-09-06T06:27:58;5.80;;;3.80;;
8580;SDS011;4328;48.622;9.230;2022-09-06T06:30:26;4.03;;;3.63;;
8580;SDS011;4328;48.622;9.230;2022-09-06T06:32:53;5.70;;;4.20;;
8580;SDS011;4328;48.622;9.230;2022-09-06T06:35:20;3.97;;;3.60;;
8580;SDS011;4328;48.622;9.230;2022-09-06T06:37:46;4.20;;;3.80;;
8580;SDS011;4328;48.622;9.230;2022-09-06T06:40:13;5.23;;;3.30;;
8580;SDS011;4328;48.622;9.230;2022-09-06T06:42:40;3.57;;;3.27;;
8580;SDS011;4328;48.622;9.230;2022-09-06T06:45:07;4.97;;;3.00;;
8580;SDS011;4328;48.622;9.230;2022-09-06T06:47:35;3.90;;;3.03;;
8580;SDS011;4328;48.622;9.230;2022-09-06T06:50:02;3.23;;;3.03;;
8580;SDS011;4328;48.622;9.230;2022-09-06T06:52:29;3.17;;;2.87;;
8580;SDS011;4328;48.622;9.230;2022-09-06T06:54:56;3.47;;;3.17;;
8580;SDS011;4328;48.622;9.230;2022-09-06T06:57:22;3.20;;;2.90;;
8580;SDS011;4328;48.622;9.230;2022-09-06T06:59:49;3.20;;;2.75;;
8580;SDS011;4328;48.622;9.230;2022-09-06T07:02:16;2.85;;;2.65;;
8580;SDS011;4328;48.622;9.230;2022-09-06T07:04:44;3.55;;;2.85;;
8580;SDS011;4328;48.622;9.230;2022-09-06T07:07:11;3.40;;;2.88;;
8580;SDS011;4328;48.622;9.230;2022-09-06T07:09:37;5.28;;;2.90;;
8580;SDS011;4328;48.622;9.230;2022-09-06T07:12:04;3.10;;;2.53;;
8580;SDS011;4328;48.622;9.230;2022-09-06T07:14:31;2.20;;;2.08;;
8580;SDS011;4328;48.622;9.230;2022-09-06T07:16:58;2.58;;;2.42;;
8580;SDS011;4328;48.622;9.230;2022-09-06T07:19:24;5.75;;;2.30;;
8580;SDS011;4328;48.622;9.230;2022-09-06T07:21:52;3.10;;;2.42;;
8580;SDS011;4328;48.622;9.230;2022-09-06T07:24:21;3.13;;;2.78;;
8580;SDS011;4328;48.622;9.230;2022-09-06T07:26:48;4.35;;;2.70;;
8580;SDS011;4328;48.622;9.230;2022-09-06T07:29:15;2.97;;;2.67;;
8580;SDS011;4328;48.622;9.230;2022-09-06T07:31:41;3.13;;;2.50;;
8580;SDS011;4328;48.622;9.230;2022-09-06T07:34:08;5.10;;;2.80;;
8580;SDS011;4328;48.622;9.230;2022-09-06T07:36:35;2.80;;;2.60;;
8580;SDS011;4328;48.622;9.230;2022-09-06T07:39:03;3.58;;;2.70;;
8580;SDS011;4328;48.622;9.230;2022-09-06T07:41:30;2.58;;;2.38;;
8580;SDS011;4328;48.622;9.230;2022-09-06T07:43:56;3.78;;;2.65;;
8580;SDS011;4328;48.622;9.230;2022-09-06T07:46:23;4.60;;;2.70;;
8580;SDS011;4328;48.622;9.230;2022-09-06T07:48:50;4.25;;;2.75;;
8580;SDS011;4328;48.622;9.230;2022-09-06T07:51:17;2.97;;;2.40;;
8580;SDS011;4328;48.622;9.230;2022-09-06T07:53:47;2.97;;;2.67;;
8580;SDS011;4328;48.622;9.230;2022-09-06T07:56:17;3.90;;;2.55;;
8580;SDS011;4328;48.622;9.230;2022-09-06T07:58:46;3.13;;;2.80;;
8580;SDS011;4328;48.622;9.230;2022-09-06T08:01:13;3.35;;;2.35;;
8580;SDS011;4328;48.622;9.230;2022-09-06T08:03:41;5.13;;;2.50;;
8580;SDS011;4328;48.622;9.230;2022-09-06T08:06:08;2.40;;;2.30;;
8580;SDS011;4328;48.622;9.230;2022-09-06T08:08:35;3.05;;;2.47;;
8580;SDS011;4328;48.622;9.230;2022-09-06T08:11:02;2.70;;;2.50;;
8580;SDS011;4328;48.622;9.230;2022-09-06T08:13:31;2.20;;;2.05;;
8580;SDS011;4328;48.622;9.230;2022-09-06T08:15:58;3.00;;;2.45;;
8580;SDS011;4328;48.622;9.230;2022-09-06T08:18:25;3.28;;;2.50;;
8580;SDS011;4328;48.622;9.230;2022-09-06T08:20:51;4.15;;;2.58;;
8580;SDS011;4328;48.622;9.230;2022-09-06T08:23:18;3.92;;;2.42;;
8580;SDS011;4328;48.622;9.230;2022-09-06T08:25:54;2.40;;;2.20;;
8580;SDS011;4328;48.622;9.230;2022-09-06T08:28:22;2.97;;;2.63;;
8580;SDS011;4328;48.622;9.230;2022-09-06T08:30:50;2.67;;;2.40;;
8580;SDS011;4328;48.622;9.230;2022-09-06T08:33:16;2.28;;;2.08;;
8580;SDS011;4328;48.622;9.230;2022-09-06T08:35:53;4.82;;;2.30;;
8580;SDS011;4328;48.622;9.230;2022-09-06T08:38:21;4.32;;;2.17;;
8580;SDS011;4328;48.622;9.230;2022-09-06T08:40:47;2.22;;;2.10;;
8580;SDS011;4328;48.622;9.230;2022-09-06T08:43:15;2.85;;;2.25;;
8580;SDS011;4328;48.622;9.230;2022-09-06T08:45:44;1.92;;;1.83;;
8580;SDS011;4328;48.622;9.230;2022-09-06T08:48:15;3.10;;;2.40;;
8580;SDS011;4328;48.622;9.230;2022-09-06T08:50:44;2.40;;;2.20;;
8580;SDS011;4328;48.622;9.230;2022-09-06T08:53:17;2.88;;;2.65;;
8580;SDS011;4328;48.622;9.230;2022-09-06T08:55:45;2.83;;;2.25;;
8580;SDS011;4328;48.622;9.230;2022-09-06T08:58:20;2.60;;;2.40;;
8580;SDS011;4328;48.622;9.230;2022-09-06T09:00:56;3.03;;;2.72;;
8580;SDS011;4328;48.622;9.230;2022-09-06T09:03:31;2.65;;;2.28;;
8580;SDS011;4328;48.622;9.230;2022-09-06T09:06:00;2.40;;;2.15;;
8580;SDS011;4328;48.622;9.230;2022-09-06T09:08:31;3.08;;;2.30;;
8580;SDS011;4328;48.622;9.230;2022-09-06T09:11:04;2.53;;;2.33;;
8580;SDS011;4328;48.622;9.230;2022-09-06T09:13:34;2.95;;;2.58;;
8580;SDS011;4328;48.622;9.230;2022-09-06T09:16:16;3.58;;;2.58;;
8580;SDS011;4328;48.622;9.230;2022-09-06T09:18:45;3.20;;;2.60;;
8580;SDS011;4328;48.622;9.230;2022-09-06T09:21:15;6.10;;;2.70;;
8580;SDS011;4328;48.622;9.230;2022-09-06T09:23:46;3.95;;;2.50;;
8580;SDS011;4328;48.622;9.230;2022-09-06T09:26:18;2.83;;;2.63;;
8580;SDS011;4328;48.622;9.230;2022-09-06T09:29:03;5.93;;;2.80;;
8580;SDS011;4328;48.622;9.230;2022-09-06T09:31:34;4.13;;;3.22;;
8580;SDS011;4328;48.622;9.230;2022-09-06T09:34:04;4.68;;;3.10;;
8580;SDS011;4328;48.622;9.230;2022-09-06T09:36:35;5.38;;;2.83;;
8580;SDS011;4328;48.622;9.230;2022-09-06T09:39:07;4.00;;;3.10;;
8580;SDS011;4328;48.622;9.230;2022-09-06T09:41:34;5.22;;;3.28;;
8580;SDS011;4328;48.622;9.230;2022-09-06T09:44:05;5.18;;;3.17;;
8580;SDS011;4328;48.622;9.230;2022-09-06T09:46:36;5.25;;;3.03;;
8580;SDS011;4328;48.622;9.230;2022-09-06T09:49:09;5.88;;;2.90;;
8580;SDS011;4328;48.622;9.230;2022-09-06T09:51:38;5.72;;;2.80;;
8580;SDS011;4328;48.622;9.230;2022-09-06T09:54:07;6.57;;;2.90;;
8580;SDS011;4328;48.622;9.230;2022-09-06T09:56:45;4.40;;;2.90;;
8580;SDS011;4328;48.622;9.230;2022-09-06T09:59:22;4.32;;;3.00;;
8580;SDS011;4328;48.622;9.230;2022-09-06T10:01:52;5.20;;;2.92;;
8580;SDS011;4328;48.622;9.230;2022-09-06T10:04:25;6.22;;;3.10;;
8580;SDS011;4328;48.622;9.230;2022-09-06T10:07:05;7.32;;;3.10;;
8580;SDS011;4328;48.622;9.230;2022-09-06T10:09:34;4.25;;;2.72;;
8580;SDS011;4328;48.622;9.230;2022-09-06T10:12:03;3.83;;;2.97;;
8580;SDS011;4328;48.622;9.230;2022-09-06T10:14:31;5.03;;;2.92;;
8580;SDS011;4328;48.622;9.230;2022-09-06T10:17:04;4.15;;;2.75;;
8580;SDS011;4328;48.622;9.230;2022-09-06T10:19:37;6.68;;;3.00;;
8580;SDS011;4328;48.622;9.230;2022-09-06T10:22:11;4.20;;;3.08;;
8580;SDS011;4328;48.622;9.230;2022-09-06T10:27:59;4.47;;;2.70;;
8580;SDS011;4328;48.622;9.230;2022-09-06T10:30:48;5.00;;;2.88;;
8580;SDS011;4328;48.622;9.230;2022-09-06T10:33:24;7.75;;;2.97;;
8580;SDS011;4328;48.622;9.230;2022-09-06T10:35:58;4.75;;;2.92;;
8580;SDS011;4328;48.622;9.230;2022-09-06T10:38:35;4.85;;;2.70;;
8580;SDS011;4328;48.622;9.230;2022-09-06T10:41:21;4.70;;;3.10;;
8580;SDS011;4328;48.622;9.230;2022-09-06T10:43:59;6.90;;;2.80;;
8580;SDS011;4328;48.622;9.230;2022-09-06T10:46:36;4.25;;;2.72;;
8580;SDS011;4328;48.622;9.230;2022-09-06T10:49:06;6.93;;;3.00;;
8580;SDS011;4328;48.622;9.230;2022-09-06T10:51:39;5.80;;;2.53;;
8580;SDS011;4328;48.622;9.230;2022-09-06T10:54:10;9.30;;;3.17;;
8580;SDS011;4328;48.622;9.230;2022-09-06T10:56:40;6.97;;;3.28;;
8580;SDS011;4328;48.622;9.230;2022-09-06T10:59:12;9.50;;;3.10;;
8580;SDS011;4328;48.622;9.230;2022-09-06T11:01:54;7.93;;;3.08;;
8580;SDS011;4328;48.622;9.230;2022-09-06T11:04:28;6.40;;;2.85;;
8580;SDS011;4328;48.622;9.230;2022-09-06T11:07:01;6.57;;;3.10;;
8580;SDS011;4328;48.622;9.230;2022-09-06T11:09:36;6.03;;;2.67;;
8580;SDS011;4328;48.622;9.230;2022-09-06T11:12:07;4.68;;;2.60;;
8580;SDS011;4328;48.622;9.230;2022-09-06T11:14:37;9.45;;;2.97;;
8580;SDS011;4328;48.622;9.230;2022-09-06T11:17:06;7.15;;;3.28;;
8580;SDS011;4328;48.622;9.230;2022-09-06T11:19:38;8.57;;;3.30;;
8580;SDS011;4328;48.622;9.230;2022-09-06T11:22:29;5.15;;;2.70;;
8580;SDS011;4328;48.622;9.230;2022-09-06T11:25:19;10.48;;;3.28;;
8580;SDS011;4328;48.622;9.230;2022-09-06T11:27:56;7.70;;;3.75;;
8580;SDS011;4328;48.622;9.230;2022-09-06T11:30:27;6.70;;;3.25;;
8580;SDS011;4328;48.622;9.230;2022-09-06T11:33:03;5.80;;;2.90;;
8580;SDS011;4328;48.622;9.230;2022-09-06T11:35:36;5.28;;;3.22;;
8580;SDS011;4328;48.622;9.230;2022-09-06T11:38:19;4.88;;;2.92;;
8580;SDS011;4328;48.622;9.230;2022-09-06T11:40:52;8.05;;;2.90;;
8580;SDS011;4328;48.622;9.230;2022-09-06T11:43:40;5.35;;;2.90;;
8580;SDS011;4328;48.622;9.230;2022-09-06T11:46:10;5.72;;;2.70;;
8580;SDS011;4328;48.622;9.230;2022-09-06T11:49:01;5.32;;;2.83;;
8580;SDS011;4328;48.622;9.230;2022-09-06T11:51:31;6.40;;;2.92;;
8580;SDS011;4328;48.622;9.230;2022-09-06T11:54:02;4.70;;;3.08;;
8580;SDS011;4328;48.622;9.230;2022-09-06T11:56:48;8.93;;;2.92;;
8580;SDS011;4328;48.622;9.230;2022-09-06T11:59:25;9.20;;;3.00;;
8580;SDS011;4328;48.622;9.230;2022-09-06T12:01:59;4.40;;;2.58;;
8580;SDS011;4328;48.622;9.230;2022-09-06T12:08:10;5.93;;;2.78;;
8580;SDS011;4328;48.622;9.230;2022-09-06T12:10:57;4.10;;;2.83;;
8580;SDS011;4328;48.622;9.230;2022-09-06T12:16:20;4.80;;;2.30;;
8580;SDS011;4328;48.622;9.230;2022-09-06T12:18:54;5.65;;;2.70;;
8580;SDS011;4328;48.622;9.230;2022-09-06T12:21:42;4.65;;;2.72;;
8580;SDS011;4328;48.622;9.230;2022-09-06T12:27:17;7.13;;;2.72;;
8580;SDS011;4328;48.622;9.230;2022-09-06T12:29:52;4.18;;;2.42;;
8580;SDS011;4328;48.622;9.230;2022-09-06T12:32:24;7.15;;;2.60;;
8580;SDS011;4328;48.622;9.230;2022-09-06T12:34:53;7.35;;;2.50;;
8580;SDS011;4328;48.622;9.230;2022-09-06T12:37:34;5.95;;;2.33;;
8580;SDS011;4328;48.622;9.230;2022-09-06T12:40:02;3.28;;;2.35;;
8580;SDS011;4328;48.622;9.230;2022-09-06T12:42:32;3.55;;;2.45;;
8580;SDS011;4328;48.622;9.230;2022-09-06T12:45:03;5.72;;;2.47;;
8580;SDS011;4328;48.622;9.230;2022-09-06T12:47:32;4.50;;;2.50;;
8580;SDS011;4328;48.622;9.230;2022-09-06T12:50:07;4.32;;;2.33;;
8580;SDS011;4328;48.622;9.230;2022-09-06T12:52:47;4.35;;;2.10;;
8580;SDS011;4328;48.622;9.230;2022-09-06T12:55:16;4.72;;;1.98;;
8580;SDS011;4328;48.622;9.230;2022-09-06T12:57:47;2.72;;;2.10;;
8580;SDS011;4328;48.622;9.230;2022-09-06T13:00:16;6.25;;;2.55;;
8580;SDS011;4328;48.622;9.230;2022-09-06T13:02:45;5.68;;;3.00;;
8580;SDS011;4328;48.622;9.230;2022-09-06T13:05:29;3.47;;;2.75;;
8580;SDS011;4328;48.622;9.230;2022-09-06T13:07:59;4.70;;;2.67;;
8580;SDS011;4328;48.622;9.230;2022-09-06T13:10:28;6.55;;;2.80;;
8580;SDS011;4328;48.622;9.230;2022-09-06T13:12:55;5.00;;;2.83;;
8580;SDS011;4328;48.622;9.230;2022-09-06T13:15:24;5.03;;;2.42;;
8580;SDS011;4328;48.622;9.230;2022-09-06T13:17:52;5.47;;;2.90;;
8580;SDS011;4328;48.622;9.230;2022-09-06T13:20:22;5.70;;;2.47;;
8580;SDS011;4328;48.622;9.230;2022-09-06T13:22:51;6.85;;;2.88;;
8580;SDS011;4328;48.622;9.230;2022-09-06T13:25:24;5.80;;;2.53;;
8580;SDS011;4328;48.622;9.230;2022-09-06T13:27:52;4.35;;;2.47;;
8580;SDS011;4328;48.622;9.230;2022-09-06T13:30:29;5.40;;;2.58;;
8580;SDS011;4328;48.622;9.230;2022-09-06T13:32:57;8.07;;;2.67;;
8580;SDS011;4328;48.622;9.230;2022-09-06T13:35:25;6.80;;;2.63;;
8580;SDS011;4328;48.622;9.230;2022-09-06T13:40:56;4.88;;;2.45;;
8580;SDS011;4328;48.622;9.230;2022-09-06T13:43:23;6.28;;;2.95;;
8580;SDS011;4328;48.622;9.230;2022-09-06T13:46:04;5.35;;;2.78;;
8580;SDS011;4328;48.622;9.230;2022-09-06T13:48:31;3.75;;;2.30;;
8580;SDS011;4328;48.622;9.230;2022-09-06T13:50:58;4.47;;;2.47;;
8580;SDS011;4328;48.622;9.230;2022-09-06T13:53:25;5.68;;;2.33;;
8580;SDS011;4328;48.622;9.230;2022-09-06T13:55:52;6.00;;;2.70;;
8580;SDS011;4328;48.622;9.230;2022-09-06T13:58:20;6.13;;;2.40;;
8580;SDS011;4328;48.622;9.230;2022-09-06T14:00:46;5.72;;;2.50;;
8580;SDS011;4328;48.622;9.230;2022-09-06T14:03:17;4.25;;;2.40;;
8580;SDS011;4328;48.622;9.230;2022-09-06T14:05:46;6.28;;;2.40;;
8580;SDS011;4328;48.622;9.230;2022-09-06T14:08:13;5.32;;;2.50;;
8580;SDS011;4328;48.622;9.230;2022-09-06T14:10:40;5.80;;;2.42;;
8580;SDS011;4328;48.622;9.230;2022-09-06T14:13:06;7.28;;;2.53;;
8580;SDS011;4328;48.622;9.230;2022-09-06T14:15:35;4.68;;;2.67;;
8580;SDS011;4328;48.622;9.230;2022-09-06T14:18:02;7.28;;;2.40;;
8580;SDS011;4328;48.622;9.230;2022-09-06T14:20:29;5.35;;;2.58;;
8580;SDS011;4328;48.622;9.230;2022-09-06T14:22:56;5.57;;;2.28;;
8580;SDS011;4328;48.622;9.230;2022-09-06T14:25:22;5.07;;;2.20;;
8580;SDS011;4328;48.622;9.230;2022-09-06T14:27:49;3.92;;;2.28;;
8580;SDS011;4328;48.622;9.230;2022-09-06T14:30:16;4.65;;;2.30;;
8580;SDS011;4328;48.622;9.230;2022-09-06T14:32:44;4.32;;;2.20;;
8580;SDS011;4328;48.622;9.230;2022-09-06T14:35:10;3.38;;;2.20;;
8580;SDS011;4328;48.622;9.230;2022-09-06T14:37:37;5.68;;;2.00;;
8580;SDS011;4328;48.622;9.230;2022-09-06T14:40:04;3.17;;;1.88;;
8580;SDS011;4328;48.622;9.230;2022-09-06T14:42:32;4.25;;;2.00;;
8580;SDS011;4328;48.622;9.230;2022-09-06T14:44:59;3.35;;;2.00;;
8580;SDS011;4328;48.622;9.230;2022-09-06T14:47:26;3.97;;;2.10;;
8580;SDS011;4328;48.622;9.230;2022-09-06T14:49:54;6.35;;;2.05;;
8580;SDS011;4328;48.622;9.230;2022-09-06T14:52:21;8.20;;;2.25;;
8580;SDS011;4328;48.622;9.230;2022-09-06T14:54:47;3.88;;;2.08;;
8580;SDS011;4328;48.622;9.230;2022-09-06T14:57:14;4.72;;;2.25;;
8580;SDS011;4328;48.622;9.230;2022-09-06T14:59:41;4.68;;;2.00;;
8580;SDS011;4328;48.622;9.230;2022-09-06T15:02:07;4.40;;;1.90;;
8580;SDS011;4328;48.622;9.230;2022-09-06T15:04:34;3.38;;;1.92;;
8580;SDS011;4328;48.622;9.230;2022-09-06T15:07:02;5.10;;;1.73;;
8580;SDS011;4328;48.622;9.230;2022-09-06T15:09:29;3.83;;;2.00;;
8580;SDS011;4328;48.622;9.230;2022-09-06T15:11:56;3.28;;;1.90;;
8580;SDS011;4328;48.622;9.230;2022-09-06T15:14:23;2.88;;;2.10;;
8580;SDS011;4328;48.622;9.230;2022-09-06T15:16:51;3.97;;;2.10;;
8580;SDS011;4328;48.622;9.230;2022-09-06T15:19:22;3.72;;;1.90;;
8580;SDS011;4328;48.622;9.230;2022-09-06T15:21:49;5.47;;;2.00;;
8580;SDS011;4328;48.622;9.230;2022-09-06T15:24:17;6.30;;;2.13;;
8580;SDS011;4328;48.622;9.230;2022-09-06T15:26:44;4.47;;;2.33;;
8580;SDS011;4328;48.622;9.230;2022-09-06T15:29:11;3.97;;;1.90;;
8580;SDS011;4328;48.622;9.230;2022-09-06T15:31:39;3.95;;;2.15;;
8580;SDS011;4328;48.622;9.230;2022-09-06T15:34:07;5.80;;;2.08;;
8580;SDS011;4328;48.622;9.230;2022-09-06T15:36:34;3.33;;;2.10;;
8580;SDS011;4328;48.622;9.230;2022-09-06T15:39:02;5.97;;;2.05;;
8580;SDS011;4328;48.622;9.230;2022-09-06T15:41:33;4.45;;;1.98;;
8580;SDS011;4328;48.622;9.230;2022-09-06T15:44:01;5.53;;;2.40;;
8580;SDS011;4328;48.622;9.230;2022-09-06T15:49:19;4.75;;;2.00;;
8580;SDS011;4328;48.622;9.230;2022-09-06T15:51:47;4.43;;;1.98;;
8580;SDS011;4328;48.622;9.230;2022-09-06T15:54:15;4.43;;;2.67;;